Time;durP1;ratioP1;P1;durP2;ratioP2;P2;SDS_P1;SDS_P2;PMS_P1;PMS_P2;Temp;Humidity;BMP_temperature;BMP_pressure;BME280_temperature;BME280_humidity;BME280_pressure;Samples;Min_cycle;Max_cycle;Signal;HPM_P1;HPM_P2
2022/11/06 00:00:46;;;;;;;19.35;3.60;;;;;;;;;;6300209;22;20098;-52
2022/11/06 00:03:20;;;;;;;19.25;2.85;;;;;;;;;;6301029;22;20016;-50
2022/11/06 00:08:40;;;;;;;22.38;3.38;;;;;;;;;;6301649;22;20054;-52
2022/11/06 00:11:16;;;;;;;25.45;3.85;;;;;;;;;;6301052;22;20509;-51
2022/11/06 00:13:43;;;;;;;31.15;4.32;;;;;;;;;;6300526;22;20029;-61
2022/11/06 00:16:17;;;;;;;20.67;2.95;;;;;;;;;;6274344;22;20022;-60
2022/11/06 00:18:44;;;;;;;22.40;4.20;;;;;;;;;;6300396;22;20023;-59
2022/11/06 00:21:16;;;;;;;14.85;3.05;;;;;;;;;;6299703;22;20023;-58
2022/11/06 00:23:50;;;;;;;;;;;;;;;;;;6301099;22;20033;-59
2022/11/06 00:26:18;;;;;;;18.08;3.28;;;;;;;;;;6300482;22;20415;-58
2022/11/06 00:28:52;;;;;;;20.42;3.40;;;;;;;;;;6298295;22;20114;-59
2022/11/06 00:31:19;;;;;;;;;;;;;;;;;;6301615;22;20077;-61
2022/11/06 00:33:47;;;;;;;21.95;2.90;;;;;;;;;;6297926;22;19996;-61
2022/11/06 00:36:22;;;;;;;18.48;3.85;;;;;;;;;;6299166;22;20472;-61
2022/11/06 00:38:52;;;;;;;20.15;4.03;;;;;;;;;;6299036;22;20016;-61
2022/11/06 00:41:26;;;;;;;19.05;3.35;;;;;;;;;;6301566;22;20026;-61
2022/11/06 00:43:53;;;;;;;;;;;;;;;;;;6302313;22;20023;-61
2022/11/06 00:46:21;;;;;;;24.45;3.33;;;;;;;;;;6303701;22;19986;-61
2022/11/06 00:48:54;;;;;;;21.83;3.97;;;;;;;;;;6302077;22;20055;-61
2022/11/06 00:51:24;;;;;;;22.73;3.50;;;;;;;;;;6302850;22;20061;-60
2022/11/06 00:53:59;;;;;;;26.30;3.20;;;;;;;;;;6302919;22;20022;-57
2022/11/06 00:56:33;;;;;;;23.23;3.83;;;;;;;;;;6301721;22;20650;-59
2022/11/06 00:59:14;;;;;;;29.92;3.83;;;;;;;;;;6302509;22;20094;-58
2022/11/06 01:01:42;;;;;;;29.25;4.20;;;;;;;;;;6302349;22;20464;-58
2022/11/06 01:04:17;;;;;;;19.92;4.22;;;;;;;;;;6303164;22;20023;-59
2022/11/06 01:06:52;;;;;;;37.63;4.78;;;;;;;;;;6301685;22;20038;-59
2022/11/06 01:09:27;;;;;;;19.33;4.35;;;;;;;;;;6302614;22;20019;-61
2022/11/06 01:12:01;;;;;;;32.33;4.90;;;;;;;;;;6301916;22;20034;-57
2022/11/06 01:14:43;;;;;;;17.95;3.95;;;;;;;;;;6301927;22;20019;-58
2022/11/06 01:17:17;;;;;;;30.38;3.78;;;;;;;;;;6301762;22;20121;-58
2022/11/06 01:19:44;;;;;;;31.80;4.63;;;;;;;;;;6302523;22;20023;-59
2022/11/06 01:22:18;;;;;;;22.50;3.60;;;;;;;;;;6300577;22;20050;-56
2022/11/06 01:24:45;;;;;;;22.20;3.70;;;;;;;;;;6301596;22;20098;-59
2022/11/06 01:27:12;;;;;;;29.65;4.35;;;;;;;;;;6302268;22;20570;-61
2022/11/06 01:29:54;;;;;;;22.55;4.15;;;;;;;;;;6300919;22;20091;-52
2022/11/06 01:32:21;;;;;;;16.75;3.65;;;;;;;;;;6302862;22;20427;-63
2022/11/06 01:34:55;;;;;;;24.27;4.10;;;;;;;;;;6302031;22;20016;-62
2022/11/06 01:37:22;;;;;;;43.90;4.57;;;;;;;;;;6301700;22;20094;-63
2022/11/06 01:39:56;;;;;;;26.80;3.60;;;;;;;;;;6303338;22;20101;-62
2022/11/06 01:42:23;;;;;;;19.77;4.07;;;;;;;;;;6302679;22;20051;-63
2022/11/06 01:45:09;;;;;;;23.08;3.90;;;;;;;;;;6301851;22;20107;-63
2022/11/06 01:47:43;;;;;;;22.08;3.95;;;;;;;;;;6301033;22;20030;-65
2022/11/06 01:50:11;;;;;;;27.08;3.88;;;;;;;;;;6301158;22;20058;-54
2022/11/06 01:52:39;;;;;;;34.40;4.90;;;;;;;;;;6301104;22;20027;-51
2022/11/06 01:55:15;;;;;;;18.88;4.30;;;;;;;;;;6302149;22;20468;-52
2022/11/06 01:57:43;;;;;;;23.00;3.67;;;;;;;;;;6300712;22;20023;-52
2022/11/06 02:00:19;;;;;;;26.15;3.60;;;;;;;;;;6301559;22;20547;-48
2022/11/06 02:02:46;;;;;;;23.58;4.03;;;;;;;;;;6300466;22;20098;-50
2022/11/06 02:05:20;;;;;;;22.38;4.45;;;;;;;;;;6301236;22;20031;-51
2022/11/06 02:07:48;;;;;;;22.73;3.72;;;;;;;;;;6301136;22;20027;-66
2022/11/06 02:10:15;;;;;;;25.17;3.38;;;;;;;;;;6302507;22;20094;-60
2022/11/06 02:13:04;;;;;;;28.27;3.97;;;;;;;;;;6300948;22;20023;-60
2022/11/06 02:15:34;;;;;;;23.73;4.35;;;;;;;;;;6300763;22;20034;-60
2022/11/06 02:18:14;;;;;;;22.85;3.33;;;;;;;;;;6275557;22;20448;-60
2022/11/06 02:21:00;;;;;;;25.05;4.82;;;;;;;;;;6300933;22;20026;-60
2022/11/06 02:23:55;;;;;;;19.70;3.53;;;;;;;;;;6301470;22;20094;-60
2022/11/06 02:26:28;;;;;;;31.77;4.32;;;;;;;;;;6301447;22;20102;-60
2022/11/06 02:29:05;;;;;;;19.77;3.70;;;;;;;;;;6300180;22;20570;-51
2022/11/06 02:31:34;;;;;;;19.77;3.58;;;;;;;;;;6299379;22;20037;-51
2022/11/06 02:34:05;;;;;;;18.10;3.60;;;;;;;;;;6300906;22;20098;-52
2022/11/06 02:36:40;;;;;;;20.55;3.65;;;;;;;;;;6300586;22;20023;-49
2022/11/06 02:39:11;;;;;;;29.38;4.32;;;;;;;;;;6299840;22;20059;-52
2022/11/06 02:41:45;;;;;;;18.77;3.42;;;;;;;;;;6301362;22;20141;-51
2022/11/06 02:44:17;;;;;;;15.40;3.47;;;;;;;;;;6300579;22;20019;-66
2022/11/06 02:46:56;;;;;;;16.48;3.75;;;;;;;;;;6301341;22;20106;-60
2022/11/06 02:49:32;;;;;;;24.05;3.58;;;;;;;;;;6299916;22;20022;-65
2022/11/06 02:52:09;;;;;;;19.98;3.85;;;;;;;;;;6300052;22;20027;-66
2022/11/06 02:54:40;;;;;;;16.48;3.88;;;;;;;;;;6300739;22;20026;-66
2022/11/06 02:57:22;;;;;;;25.43;3.73;;;;;;;;;;6300476;22;20025;-66
2022/11/06 03:00:05;;;;;;;19.35;3.80;;;;;;;;;;6301701;22;20069;-66
2022/11/06 03:02:41;;;;;;;17.67;4.07;;;;;;;;;;6301460;22;20090;-60
2022/11/06 03:05:30;;;;;;;17.35;3.65;;;;;;;;;;6273610;22;20027;-62
2022/11/06 03:08:09;;;;;;;22.55;4.00;;;;;;;;;;6300079;22;20099;-61
2022/11/06 03:10:59;;;;;;;25.05;4.28;;;;;;;;;;6301193;22;20026;-61
2022/11/06 03:13:43;;;;;;;27.90;4.93;;;;;;;;;;6300860;22;20026;-61
2022/11/06 03:16:33;;;;;;;22.92;4.35;;;;;;;;;;6300805;22;20023;-61
2022/11/06 03:19:27;;;;;;;18.95;3.38;;;;;;;;;;6300735;22;20504;-61
2022/11/06 03:22:27;;;;;;;20.13;3.45;;;;;;;;;;6300389;22;20098;-60
2022/11/06 03:25:07;;;;;;;18.00;3.90;;;;;;;;;;6223827;22;20126;-62
2022/11/06 03:27:36;;;;;;;22.48;4.15;;;;;;;;;;6300391;22;20030;-58
2022/11/06 03:30:13;;;;;;;20.92;4.03;;;;;;;;;;6301930;22;20038;-59
2022/11/06 03:32:51;;;;;;;25.05;4.93;;;;;;;;;;6299152;22;20472;-57
2022/11/06 03:35:30;;;;;;;20.33;4.35;;;;;;;;;;6299379;22;20356;-58
2022/11/06 03:38:09;;;;;;;22.27;3.75;;;;;;;;;;6301370;22;20019;-59
2022/11/06 03:40:46;;;;;;;26.38;3.78;;;;;;;;;;6300391;22;20058;-66
2022/11/06 03:43:15;;;;;;;30.70;4.47;;;;;;;;;;6301453;22;20015;-55
2022/11/06 03:45:43;;;;;;;23.90;4.32;;;;;;;;;;6298730;22;20023;-59
2022/11/06 03:48:28;;;;;;;28.13;5.35;;;;;;;;;;6300311;22;20094;-59
2022/11/06 03:51:05;;;;;;;19.95;4.03;;;;;;;;;;6302084;22;20023;-59
2022/11/06 03:53:42;;;;;;;27.60;5.05;;;;;;;;;;6300836;22;20125;-59
2022/11/06 03:56:13;;;;;;;19.95;4.07;;;;;;;;;;6300192;22;20015;-59
2022/11/06 03:58:55;;;;;;;21.42;4.18;;;;;;;;;;6300645;22;20464;-59
2022/11/06 04:01:24;;;;;;;32.90;4.63;;;;;;;;;;6301443;22;20015;-60
2022/11/06 04:04:03;;;;;;;31.65;5.18;;;;;;;;;;6298748;22;20073;-59
2022/11/06 04:06:40;;;;;;;18.00;4.63;;;;;;;;;;6301013;22;20019;-60
2022/11/06 04:14:57;;;;;;;20.50;4.97;;;;;;;;;;6299877;22;20030;-59
2022/11/06 04:17:27;;;;;;;15.75;4.80;;;;;;;;;;6301219;22;20031;-59
2022/11/06 04:20:02;;;;;;;18.08;4.47;;;;;;;;;;6301569;22;20430;-52
2022/11/06 04:22:44;;;;;;;17.00;5.25;;;;;;;;;;6301364;22;20102;-48
2022/11/06 04:28:22;;;;;;;28.35;6.53;;;;;;;;;;6302641;22;20015;-49
2022/11/06 04:31:16;;;;;;;22.30;6.55;;;;;;;;;;6299994;22;20062;-51
2022/11/06 04:33:46;;;;;;;31.95;7.32;;;;;;;;;;6301584;22;20033;-51
2022/11/06 04:36:37;;;;;;;23.48;6.70;;;;;;;;;;6300525;22;20019;-50
2022/11/06 04:39:24;;;;;;;22.48;6.43;;;;;;;;;;6300688;22;20082;-60
2022/11/06 04:42:10;;;;;;;32.88;7.55;;;;;;;;;;6300642;22;20026;-60
2022/11/06 04:44:43;;;;;;;28.02;6.45;;;;;;;;;;6300359;22;20106;-60
2022/11/06 04:47:19;;;;;;;23.65;5.95;;;;;;;;;;6301229;22;20019;-60
2022/11/06 04:49:48;;;;;;;28.20;6.45;;;;;;;;;;6301172;22;20348;-60
2022/11/06 04:52:24;;;;;;;22.50;6.70;;;;;;;;;;6300733;22;20506;-60
2022/11/06 04:54:52;;;;;;;25.13;6.70;;;;;;;;;;6300979;22;20099;-61
2022/11/06 04:57:33;;;;;;;31.55;7.45;;;;;;;;;;6300651;22;20037;-62
2022/11/06 05:00:00;;;;;;;18.60;6.72;;;;;;;;;;6300195;22;20456;-61
2022/11/06 05:02:34;;;;;;;23.08;6.63;;;;;;;;;;6300749;22;20033;-59
2022/11/06 05:05:01;;;;;;;18.60;6.50;;;;;;;;;;6302274;22;20059;-58
2022/11/06 05:07:28;;;;;;;23.20;7.00;;;;;;;;;;6300386;22;20380;-56
2022/11/06 05:10:02;;;;;;;22.48;6.97;;;;;;;;;;6300440;22;20023;-57
2022/11/06 05:12:29;;;;;;;24.95;6.65;;;;;;;;;;6301894;22;20106;-58
2022/11/06 05:15:03;;;;;;;23.58;7.60;;;;;;;;;;6301253;22;20041;-59
2022/11/06 05:17:30;;;;;;;24.92;7.70;;;;;;;;;;6298994;22;20057;-51
2022/11/06 05:20:02;;;;;;;25.33;7.50;;;;;;;;;;6299749;22;20090;-60
2022/11/06 05:22:59;;;;;;;27.65;7.00;;;;;;;;;;6298639;22;20023;-60
2022/11/06 05:25:28;;;;;;;28.17;8.13;;;;;;;;;;6300295;22;20090;-60
2022/11/06 05:28:04;;;;;;;21.27;7.43;;;;;;;;;;6301681;22;20063;-60
2022/11/06 05:30:31;;;;;;;26.55;7.97;;;;;;;;;;6303258;22;20098;-59
2022/11/06 05:32:59;;;;;;;31.25;9.15;;;;;;;;;;6301068;22;20554;-59
2022/11/06 05:35:33;;;;;;;32.22;9.70;;;;;;;;;;6302245;22;20146;-59
2022/11/06 05:38:03;;;;;;;28.42;9.45;;;;;;;;;;6301670;22;20019;-52
2022/11/06 05:40:37;;;;;;;28.97;9.43;;;;;;;;;;6302278;22;20475;-54
2022/11/06 05:43:05;;;;;;;33.75;9.82;;;;;;;;;;6301948;22;20019;-55
2022/11/06 05:45:38;;;;;;;31.75;11.32;;;;;;;;;;6302008;22;20560;-53
2022/11/06 05:48:05;;;;;;;36.85;11.60;;;;;;;;;;6301783;22;20026;-55
2022/11/06 05:50:33;;;;;;;27.17;10.35;;;;;;;;;;6301786;22;20098;-54
2022/11/06 05:53:06;;;;;;;25.65;11.00;;;;;;;;;;6300638;22;20034;-55
2022/11/06 05:55:33;;;;;;;36.30;11.73;;;;;;;;;;6302655;22;20019;-65
2022/11/06 05:58:14;;;;;;;24.10;10.65;;;;;;;;;;6301444;22;20034;-62
2022/11/06 06:00:43;;;;;;;28.85;11.70;;;;;;;;;;6303118;22;20424;-62
2022/11/06 06:03:16;;;;;;;26.52;9.48;;;;;;;;;;6299946;22;20026;-61
2022/11/06 06:05:43;;;;;;;29.52;9.73;;;;;;;;;;6303191;22;20023;-62
2022/11/06 06:08:10;;;;;;;26.95;9.45;;;;;;;;;;6302474;22;20098;-62
2022/11/06 06:10:45;;;;;;;21.05;8.93;;;;;;;;;;6301601;22;20380;-63
2022/11/06 06:13:12;;;;;;;23.33;9.43;;;;;;;;;;6301941;22;20102;-59
2022/11/06 06:15:46;;;;;;;18.98;8.77;;;;;;;;;;6303171;22;20015;-52
2022/11/06 06:18:13;;;;;;;15.45;8.25;;;;;;;;;;6300386;22;20023;-61
2022/11/06 06:20:41;;;;;;;19.48;8.80;;;;;;;;;;6301230;22;20464;-61
2022/11/06 06:23:15;;;;;;;19.13;8.52;;;;;;;;;;6300666;22;20502;-60
2022/11/06 06:25:42;;;;;;;18.15;8.95;;;;;;;;;;6302169;22;20015;-60
2022/11/06 06:28:16;;;;;;;18.85;8.25;;;;;;;;;;6302446;22;20046;-60
2022/11/06 06:30:43;;;;;;;16.42;9.40;;;;;;;;;;6300466;22;20019;-61
2022/11/06 06:33:13;;;;;;;23.17;9.75;;;;;;;;;;6273476;22;20462;-52
2022/11/06 06:35:47;;;;;;;20.83;9.63;;;;;;;;;;6302258;22;20019;-61
2022/11/06 06:38:14;;;;;;;17.73;9.18;;;;;;;;;;6274770;22;20027;-61
2022/11/06 06:40:49;;;;;;;17.48;8.90;;;;;;;;;;6301108;22;20030;-62
2022/11/06 06:43:17;;;;;;;18.17;9.00;;;;;;;;;;6274044;22;20094;-62
2022/11/06 06:45:44;;;;;;;15.00;8.23;;;;;;;;;;6301229;22;20423;-62
2022/11/06 06:48:18;;;;;;;11.50;7.68;;;;;;;;;;6274618;22;20019;-61
2022/11/06 06:50:45;;;;;;;13.95;7.72;;;;;;;;;;6301185;22;20404;-61
2022/11/06 06:53:19;;;;;;;12.65;6.57;;;;;;;;;;6301249;22;20026;-52
2022/11/06 06:55:46;;;;;;;10.65;5.70;;;;;;;;;;6302411;22;20090;-50
2022/11/06 06:58:13;;;;;;;7.93;5.35;;;;;;;;;;6302010;22;20106;-50
2022/11/06 07:00:47;;;;;;;7.63;4.72;;;;;;;;;;6299876;22;20062;-52
2022/11/06 07:03:15;;;;;;;7.75;5.50;;;;;;;;;;6302034;22;20426;-54
2022/11/06 07:05:48;;;;;;;8.98;5.38;;;;;;;;;;6302215;22;20086;-50
2022/11/06 07:08:15;;;;;;;6.30;4.88;;;;;;;;;;6299784;22;20023;-53
2022/11/06 07:10:43;;;;;;;12.27;5.55;;;;;;;;;;6300926;22;20053;-49
2022/11/06 07:13:16;;;;;;;7.25;4.32;;;;;;;;;;6300933;22;20563;-52
2022/11/06 07:15:43;;;;;;;6.20;4.35;;;;;;;;;;6299362;22;20486;-62
2022/11/06 07:18:17;;;;;;;7.63;4.15;;;;;;;;;;6301372;22;20029;-62
2022/11/06 07:20:45;;;;;;;11.32;4.82;;;;;;;;;;6301576;22;20029;-62
2022/11/06 07:23:13;;;;;;;12.80;4.30;;;;;;;;;;6272212;22;20023;-62
2022/11/06 07:25:53;;;;;;;8.18;4.13;;;;;;;;;;6301742;22;20098;-63
2022/11/06 07:28:20;;;;;;;6.90;3.10;;;;;;;;;;6302452;22;20101;-63
2022/11/06 07:30:58;;;;;;;3.05;2.45;;;;;;;;;;6300915;22;20041;-61
2022/11/06 07:33:25;;;;;;;12.60;3.20;;;;;;;;;;6301334;22;20514;-66
2022/11/06 07:35:52;;;;;;;3.85;2.40;;;;;;;;;;6300970;22;20396;-66
2022/11/06 07:38:26;;;;;;;3.70;2.30;;;;;;;;;;6299338;22;20045;-65
2022/11/06 07:40:53;;;;;;;2.10;1.38;;;;;;;;;;6299099;22;20025;-66
2022/11/06 07:43:27;;;;;;;3.47;2.20;;;;;;;;;;6301033;22;20105;-66
2022/11/06 07:45:57;;;;;;;3.30;1.73;;;;;;;;;;6300206;22;20023;-66
2022/11/06 07:48:31;;;;;;;2.65;1.40;;;;;;;;;;6297757;22;20019;-60
2022/11/06 07:51:01;;;;;;;2.55;1.65;;;;;;;;;;6301592;22;20245;-60
2022/11/06 07:53:34;;;;;;;1.60;1.27;;;;;;;;;;6300188;22;20034;-63
2022/11/06 07:56:02;;;;;;;2.95;1.50;;;;;;;;;;6301138;22;20102;-63
2022/11/06 07:58:29;;;;;;;3.08;1.23;;;;;;;;;;6300637;22;20121;-62
2022/11/06 08:01:03;;;;;;;2.28;1.00;;;;;;;;;;6300951;22;20390;-62
2022/11/06 08:03:30;;;;;;;3.83;1.20;;;;;;;;;;6300511;22;20089;-62
2022/11/06 08:05:58;;;;;;;1.35;1.15;;;;;;;;;;6301666;22;20026;-62
2022/11/06 08:08:32;;;;;;;2.10;1.02;;;;;;;;;;6301352;22;20372;-63
2022/11/06 08:11:03;;;;;;;2.20;1.20;;;;;;;;;;6301478;22;20023;-63
2022/11/06 08:13:37;;;;;;;1.80;1.10;;;;;;;;;;6295295;22;20033;-61
2022/11/06 08:16:05;;;;;;;1.55;1.02;;;;;;;;;;6299253;22;20541;-63
2022/11/06 08:18:32;;;;;;;2.10;1.13;;;;;;;;;;6295863;22;20019;-62
2022/11/06 08:21:07;;;;;;;1.05;0.90;;;;;;;;;;6298849;22;20027;-62
2022/11/06 08:23:35;;;;;;;1.58;0.77;;;;;;;;;;6295813;22;20037;-61
2022/11/06 08:26:08;;;;;;;0.70;0.70;;;;;;;;;;6298656;22;20065;-62
2022/11/06 08:28:35;;;;;;;0.50;0.50;;;;;;;;;;6273078;22;20015;-61
2022/11/06 08:31:06;;;;;;;1.65;0.70;;;;;;;;;;6298708;22;20019;-59
2022/11/06 08:33:40;;;;;;;0.85;0.75;;;;;;;;;;6272344;22;20524;-59
2022/11/06 08:36:08;;;;;;;0.73;0.55;;;;;;;;;;6300134;22;20020;-59
2022/11/06 08:38:35;;;;;;;1.98;1.05;;;;;;;;;;6297581;22;20023;-59
2022/11/06 08:41:12;;;;;;;2.72;0.80;;;;;;;;;;6298194;22;20461;-59
2022/11/06 08:43:40;;;;;;;2.03;0.73;;;;;;;;;;6299847;22;20575;-59
2022/11/06 08:46:14;;;;;;;6.22;0.93;;;;;;;;;;6297961;22;20027;-50
2022/11/06 08:48:41;;;;;;;2.78;0.75;;;;;;;;;;6298643;22;20015;-55
2022/11/06 08:51:15;;;;;;;1.48;0.88;;;;;;;;;;6300338;22;20423;-60
2022/11/06 08:53:42;;;;;;;1.10;0.73;;;;;;;;;;6299083;22;20494;-60
2022/11/06 08:56:16;;;;;;;3.45;0.80;;;;;;;;;;6299960;22;20589;-60
2022/11/06 08:58:51;;;;;;;1.20;1.00;;;;;;;;;;6298976;22;20162;-60
2022/11/06 09:01:25;;;;;;;1.08;1.00;;;;;;;;;;6299895;22;20034;-60
2022/11/06 09:03:59;;;;;;;1.45;1.23;;;;;;;;;;6300771;22;20062;-60
2022/11/06 09:06:26;;;;;;;3.45;1.20;;;;;;;;;;6302902;22;20035;-60
2022/11/06 09:08:54;;;;;;;3.90;1.75;;;;;;;;;;6301392;22;20102;-59
2022/11/06 09:11:28;;;;;;;2.83;1.67;;;;;;;;;;6301153;22;20086;-59
2022/11/06 09:13:55;;;;;;;11.70;1.92;;;;;;;;;;6300438;22;20033;-59
2022/11/06 09:16:29;;;;;;;2.40;1.75;;;;;;;;;;6302773;22;20046;-60
2022/11/06 09:18:57;;;;;;;3.90;1.92;;;;;;;;;;6301586;22;20098;-59
2022/11/06 09:21:24;;;;;;;6.55;2.22;;;;;;;;;;6301285;22;20431;-60
2022/11/06 09:23:58;;;;;;;2.90;1.92;;;;;;;;;;6301735;22;20037;-62
2022/11/06 09:26:25;;;;;;;4.57;2.58;;;;;;;;;;6301464;22;20528;-60
2022/11/06 09:29:06;;;;;;;6.97;3.35;;;;;;;;;;6300691;22;20102;-59
2022/11/06 09:31:41;;;;;;;7.25;3.45;;;;;;;;;;6301913;22;20016;-59
2022/11/06 09:34:15;;;;;;;10.48;3.83;;;;;;;;;;6296882;22;20033;-59
2022/11/06 09:36:42;;;;;;;10.75;3.88;;;;;;;;;;6298537;22;20122;-59
2022/11/06 09:39:14;;;;;;;16.42;4.90;;;;;;;;;;6275055;22;20156;-58
2022/11/06 09:41:48;;;;;;;15.32;5.88;;;;;;;;;;6301561;22;20019;-59
2022/11/06 09:44:26;;;;;;;20.67;5.57;;;;;;;;;;6273042;22;20087;-58
2022/11/06 09:47:03;;;;;;;18.27;6.20;;;;;;;;;;6300513;22;20019;-59
2022/11/06 09:49:30;;;;;;;26.15;6.25;;;;;;;;;;6300111;22;20122;-59
2022/11/06 09:52:07;;;;;;;32.40;6.97;;;;;;;;;;6299553;22;20550;-60
2022/11/06 09:54:55;;;;;;;16.42;5.25;;;;;;;;;;6301318;22;20028;-59
2022/11/06 09:57:44;;;;;;;25.83;5.80;;;;;;;;;;6300145;22;20098;-60
2022/11/06 10:00:19;;;;;;;27.17;4.93;;;;;;;;;;6299128;22;20023;-59
2022/11/06 10:02:55;;;;;;;17.73;5.00;;;;;;;;;;6300462;22;20038;-58
2022/11/06 10:05:35;;;;;;;22.30;4.72;;;;;;;;;;6300642;22;20675;-60
2022/11/06 10:08:21;;;;;;;22.17;5.32;;;;;;;;;;6301042;22;20038;-60
2022/11/06 10:10:58;;;;;;;14.18;3.78;;;;;;;;;;6300479;22;20102;-60
2022/11/06 10:13:41;;;;;;;23.23;4.15;;;;;;;;;;6298779;22;20023;-60
2022/11/06 10:16:27;;;;;;;15.43;3.40;;;;;;;;;;6299648;22;20023;-60
2022/11/06 10:19:18;;;;;;;18.05;3.97;;;;;;;;;;6298844;22;20057;-60
2022/11/06 10:21:59;;;;;;;14.70;3.28;;;;;;;;;;6300777;22;20023;-60
2022/11/06 10:24:45;;;;;;;18.02;3.13;;;;;;;;;;6299221;22;20023;-54
2022/11/06 10:27:25;;;;;;;14.73;3.00;;;;;;;;;;6301613;22;20054;-49
2022/11/06 10:29:59;;;;;;;9.02;2.22;;;;;;;;;;6299608;22;20045;-51
2022/11/06 10:32:26;;;;;;;15.38;2.83;;;;;;;;;;6298809;22;20028;-51
2022/11/06 10:35:06;;;;;;;16.63;3.05;;;;;;;;;;6297505;22;20023;-52
2022/11/06 10:37:39;;;;;;;12.70;2.83;;;;;;;;;;6298956;22;20025;-54
2022/11/06 10:40:21;;;;;;;13.98;2.05;;;;;;;;;;6299472;22;20027;-66
2022/11/06 10:42:54;;;;;;;14.77;2.45;;;;;;;;;;6298938;22;20027;-60
2022/11/06 10:45:29;;;;;;;12.93;2.25;;;;;;;;;;6300270;22;20029;-65
2022/11/06 10:48:01;;;;;;;11.05;2.00;;;;;;;;;;6298856;22;20026;-65
2022/11/06 10:50:49;;;;;;;11.68;2.25;;;;;;;;;;6300361;22;20019;-65
2022/11/06 10:53:33;;;;;;;12.13;2.15;;;;;;;;;;6300918;22;20027;-64
2022/11/06 10:56:14;;;;;;;10.52;1.70;;;;;;;;;;6301610;22;20074;-65
2022/11/06 10:58:53;;;;;;;8.93;1.88;;;;;;;;;;6297728;22;20050;-60
2022/11/06 11:01:27;;;;;;;10.30;1.95;;;;;;;;;;6301242;22;20831;-60
2022/11/06 11:04:01;;;;;;;12.85;2.15;;;;;;;;;;6301205;22;20046;-60
2022/11/06 11:06:29;;;;;;;10.63;1.70;;;;;;;;;;6300174;22;20460;-60
2022/11/06 11:09:22;;;;;;;20.77;2.30;;;;;;;;;;6300629;22;20110;-60
2022/11/06 11:11:49;;;;;;;9.85;1.60;;;;;;;;;;6300836;22;20019;-60
2022/11/06 11:14:27;;;;;;;10.13;1.70;;;;;;;;;;6300710;22;20102;-60
2022/11/06 11:16:55;;;;;;;7.30;1.38;;;;;;;;;;6298825;22;20023;-60
2022/11/06 11:19:23;;;;;;;;;;;;;;;;;;6302258;22;20026;-58
2022/11/06 11:21:58;;;;;;;16.65;2.00;;;;;;;;;;6299081;22;19985;-53
2022/11/06 11:24:26;;;;;;;9.38;2.10;;;;;;;;;;6301113;22;20019;-49
2022/11/06 11:27:01;;;;;;;10.52;1.88;;;;;;;;;;6301037;22;20033;-50
2022/11/06 11:29:30;;;;;;;9.82;2.17;;;;;;;;;;6299839;22;20029;-54
2022/11/06 11:32:06;;;;;;;12.43;1.85;;;;;;;;;;6301475;22;20061;-54
2022/11/06 11:34:42;;;;;;;12.57;1.58;;;;;;;;;;6300572;22;20025;-54
2022/11/06 11:37:27;;;;;;;11.88;2.00;;;;;;;;;;6301222;22;20046;-61
2022/11/06 11:40:21;;;;;;;11.27;1.70;;;;;;;;;;6300888;22;20524;-66
2022/11/06 11:43:14;;;;;;;9.43;1.70;;;;;;;;;;6300138;22;20034;-55
2022/11/06 11:45:42;;;;;;;10.00;1.80;;;;;;;;;;6300717;22;20531;-52
2022/11/06 11:48:15;;;;;;;5.43;1.70;;;;;;;;;;6300287;22;20440;-53
2022/11/06 11:50:43;;;;;;;14.02;2.38;;;;;;;;;;6299664;22;20466;-54
2022/11/06 11:53:13;;;;;;;10.88;1.98;;;;;;;;;;6301079;22;20029;-51
2022/11/06 11:55:48;;;;;;;9.38;2.15;;;;;;;;;;6299406;22;20016;-60
2022/11/06 11:58:27;;;;;;;12.38;2.38;;;;;;;;;;6297582;22;20433;-52
2022/11/06 12:01:02;;;;;;;13.63;2.20;;;;;;;;;;6300753;22;20041;-59
2022/11/06 12:03:51;;;;;;;16.77;2.50;;;;;;;;;;6299087;22;20136;-60
2022/11/06 12:06:24;;;;;;;16.38;2.35;;;;;;;;;;6301736;22;20102;-60
2022/11/06 12:08:53;;;;;;;11.25;2.17;;;;;;;;;;6300116;22;20030;-60
2022/11/06 12:11:23;;;;;;;12.90;2.40;;;;;;;;;;6296875;22;20027;-60
2022/11/06 12:14:26;;;;;;;13.65;2.40;;;;;;;;;;6298999;22;20106;-59
2022/11/06 12:16:56;;;;;;;14.75;2.67;;;;;;;;;;6298991;22;20023;-59
2022/11/06 12:19:31;;;;;;;13.57;2.20;;;;;;;;;;6300719;22;20566;-65
2022/11/06 12:22:00;;;;;;;14.35;2.30;;;;;;;;;;6301245;22;20308;-64
2022/11/06 12:24:37;;;;;;;7.82;2.58;;;;;;;;;;6300630;22;20026;-64
2022/11/06 12:27:31;;;;;;;10.63;2.15;;;;;;;;;;6299021;22;20098;-65
2022/11/06 12:30:07;;;;;;;12.50;1.98;;;;;;;;;;6301114;22;20263;-65
2022/11/06 12:32:43;;;;;;;10.00;2.20;;;;;;;;;;6300509;22;20218;-65
2022/11/06 12:35:30;;;;;;;10.63;2.03;;;;;;;;;;6299785;22;20078;-61
2022/11/06 12:38:10;;;;;;;12.02;2.08;;;;;;;;;;6277530;22;20023;-59
2022/11/06 12:40:39;;;;;;;10.43;2.35;;;;;;;;;;6303104;22;20019;-59
2022/11/06 12:43:16;;;;;;;11.65;2.08;;;;;;;;;;6302121;22;20022;-58
2022/11/06 12:45:55;;;;;;;13.93;2.58;;;;;;;;;;6303070;22;20019;-58
2022/11/06 12:48:48;;;;;;;11.15;2.72;;;;;;;;;;6303130;22;20360;-58
2022/11/06 12:51:18;;;;;;;10.00;2.05;;;;;;;;;;6302516;22;20106;-56
2022/11/06 12:54:11;;;;;;;10.95;3.08;;;;;;;;;;6302277;22;20586;-65
2022/11/06 12:56:41;;;;;;;16.23;2.85;;;;;;;;;;6275046;22;20047;-58
2022/11/06 12:59:28;;;;;;;9.27;2.38;;;;;;;;;;6299927;22;20019;-57
2022/11/06 13:02:05;;;;;;;12.95;1.70;;;;;;;;;;6300964;22;20106;-57
2022/11/06 13:04:40;;;;;;;17.17;2.63;;;;;;;;;;6298344;22;20102;-58
2022/11/06 13:07:13;;;;;;;15.68;3.08;;;;;;;;;;6298460;22;20029;-58
2022/11/06 13:10:01;;;;;;;11.55;2.15;;;;;;;;;;6302127;22;20023;-58
2022/11/06 13:12:34;;;;;;;15.35;2.50;;;;;;;;;;6302446;22;20405;-61
2022/11/06 13:15:08;;;;;;;10.13;2.30;;;;;;;;;;6302978;22;20023;-61
2022/11/06 13:17:47;;;;;;;21.05;2.90;;;;;;;;;;6302649;22;20102;-60
2022/11/06 13:20:26;;;;;;;19.52;2.90;;;;;;;;;;6301672;22;20102;-60
2022/11/06 13:23:01;;;;;;;19.60;2.67;;;;;;;;;;6299632;22;20089;-61
2022/11/06 13:26:02;;;;;;;16.30;2.30;;;;;;;;;;6302069;22;20019;-60
2022/11/06 13:28:42;;;;;;;13.13;2.58;;;;;;;;;;6302124;22;20097;-60
2022/11/06 13:31:18;;;;;;;17.17;2.10;;;;;;;;;;6302435;22;20464;-60
2022/11/06 13:33:50;;;;;;;16.77;3.05;;;;;;;;;;6299523;22;20023;-65
2022/11/06 13:36:23;;;;;;;19.98;2.78;;;;;;;;;;6301040;22;20015;-60
2022/11/06 13:38:54;;;;;;;13.80;2.70;;;;;;;;;;6303023;22;20101;-60
2022/11/06 13:41:29;;;;;;;16.25;2.63;;;;;;;;;;6301605;22;20102;-60
2022/11/06 13:43:58;;;;;;;17.10;3.22;;;;;;;;;;6302141;22;20023;-59
2022/11/06 13:46:51;;;;;;;16.83;2.35;;;;;;;;;;6295485;22;20019;-60
2022/11/06 13:49:22;;;;;;;6.85;2.17;;;;;;;;;;6300440;22;20424;-60
2022/11/06 13:52:00;;;;;;;14.57;2.90;;;;;;;;;;6298392;22;20025;-60
2022/11/06 13:54:33;;;;;;;14.88;2.63;;;;;;;;;;6301277;22;20472;-52
2022/11/06 13:57:33;;;;;;;16.10;2.97;;;;;;;;;;6301731;22;20020;-51
2022/11/06 14:00:11;;;;;;;11.60;2.50;;;;;;;;;;6268734;22;20051;-54
2022/11/06 14:03:04;;;;;;;17.23;2.97;;;;;;;;;;6268508;22;20484;-53
2022/11/06 14:05:37;;;;;;;18.17;2.70;;;;;;;;;;6269824;22;20460;-49
2022/11/06 14:08:21;;;;;;;10.52;2.72;;;;;;;;;;6269759;22;20107;-53
2022/11/06 14:10:51;;;;;;;17.05;2.50;;;;;;;;;;6242841;22;20539;-51
2022/11/06 14:13:30;;;;;;;11.43;2.90;;;;;;;;;;6271176;22;20123;-65
2022/11/06 14:15:59;;;;;;;17.08;2.50;;;;;;;;;;6270426;22;20106;-66
2022/11/06 14:18:33;;;;;;;13.85;2.58;;;;;;;;;;6270311;22;20024;-65
2022/11/06 14:21:32;;;;;;;11.93;2.70;;;;;;;;;;6270418;22;20098;-65
2022/11/06 14:24:13;;;;;;;12.02;2.50;;;;;;;;;;6195090;22;20028;-65
2022/11/06 14:26:45;;;;;;;8.75;2.92;;;;;;;;;;6270411;22;20015;-64
2022/11/06 14:29:28;;;;;;;11.02;2.50;;;;;;;;;;6269843;22;20364;-66
2022/11/06 14:31:59;;;;;;;13.55;2.72;;;;;;;;;;6270944;22;20038;-58
2022/11/06 14:34:34;;;;;;;8.02;2.35;;;;;;;;;;6269035;22;20462;-58
2022/11/06 14:37:19;;;;;;;13.52;2.72;;;;;;;;;;6270217;22;20642;-58
2022/11/06 14:39:57;;;;;;;12.57;2.85;;;;;;;;;;6270014;22;20051;-56
2022/11/06 14:42:27;;;;;;;11.60;2.53;;;;;;;;;;6270602;22;20098;-59
2022/11/06 14:45:07;;;;;;;16.75;3.35;;;;;;;;;;6269024;22;20487;-57
2022/11/06 14:47:39;;;;;;;22.73;3.28;;;;;;;;;;6270620;22;20099;-51
2022/11/06 14:50:18;;;;;;;19.20;2.70;;;;;;;;;;6269641;22;20020;-60
2022/11/06 14:52:48;;;;;;;15.50;3.00;;;;;;;;;;6269111;22;20030;-65
2022/11/06 14:55:41;;;;;;;14.63;2.80;;;;;;;;;;6268308;22;20030;-65
2022/11/06 14:58:32;;;;;;;13.93;3.15;;;;;;;;;;6282461;22;20022;-66
2022/11/06 15:01:09;;;;;;;16.45;3.35;;;;;;;;;;6301189;22;20880;-65
2022/11/06 15:03:43;;;;;;;19.17;3.25;;;;;;;;;;6301602;22;20027;-65
2022/11/06 15:06:16;;;;;;;21.95;3.15;;;;;;;;;;6302445;22;20028;-67
2022/11/06 15:08:49;;;;;;;13.65;3.03;;;;;;;;;;6299505;22;20477;-61
2022/11/06 15:11:29;;;;;;;18.35;3.15;;;;;;;;;;6299070;22;20076;-53
2022/11/06 15:14:16;;;;;;;19.98;3.63;;;;;;;;;;6299763;22;20399;-50
2022/11/06 15:16:54;;;;;;;16.50;3.05;;;;;;;;;;6299616;22;20022;-51
2022/11/06 15:19:22;;;;;;;22.88;3.72;;;;;;;;;;6296601;22;20098;-53
2022/11/06 15:22:02;;;;;;;27.77;4.00;;;;;;;;;;6272890;22;20528;-50
2022/11/06 15:24:33;;;;;;;15.05;3.55;;;;;;;;;;6296482;22;20019;-49
2022/11/06 15:27:11;;;;;;;25.48;4.55;;;;;;;;;;6296127;22;20054;-60
2022/11/06 15:29:43;;;;;;;25.40;4.20;;;;;;;;;;6299148;22;20015;-57